Time;durP1;ratioP1;P1;durP2;ratioP2;P2;SDS_P1;SDS_P2;PMS_P1;PMS_P2;Temp;Humidity;BMP_temperature;BMP_pressure;BME280_temperature;BME280_humidity;BME280_pressure;Samples;Min_cycle;Max_cycle;Signal;HPM_P1;HPM_P2
2022/03/17 00:01:19;;;;;;;21.73;9.68;;;;;;;-4.11;63.40;101432.23;1709254;83;20987;-71
2022/03/17 00:03:48;;;;;;;23.38;10.65;;;;;;;-4.10;63.50;101429.89;1711116;83;21041;-69
2022/03/17 00:06:14;;;;;;;19.92;8.63;;;;;;;-4.06;63.80;101441.16;1712436;83;21505;-71
2022/03/17 00:08:41;;;;;;;19.87;11.10;;;;;;;-4.02;63.75;101441.13;1687401;83;21043;-70
2022/03/17 00:11:08;;;;;;;24.65;10.80;;;;;;;-3.96;63.55;101439.59;1708571;83;21143;-70
2022/03/17 00:13:37;;;;;;;19.05;9.50;;;;;;;-3.95;63.40;101436.72;1712133;82;21081;-69
2022/03/17 00:16:05;;;;;;;19.90;8.10;;;;;;;-3.88;63.34;101436.01;1711919;83;21084;-68
2022/03/17 00:18:34;;;;;;;18.40;9.43;;;;;;;-3.85;63.17;101427.56;1708162;83;21025;-68
2022/03/17 00:21:01;;;;;;;25.80;9.78;;;;;;;-3.81;63.03;101431.59;1670732;84;21192;-69
2022/03/17 00:23:30;;;;;;;23.73;9.28;;;;;;;-3.77;62.97;101434.25;1682100;84;20954;-67
2022/03/17 00:25:58;;;;;;;25.88;9.80;;;;;;;-3.71;62.84;101428.67;1708164;83;20941;-69
2022/03/17 00:28:27;;;;;;;24.23;10.48;;;;;;;-3.63;62.86;101434.54;1710765;83;21017;-68
2022/03/17 00:30:54;;;;;;;21.20;10.08;;;;;;;-3.57;62.77;101439.20;1711991;83;20961;-69
2022/03/17 00:33:21;;;;;;;25.70;10.20;;;;;;;-3.51;62.62;101438.48;1706054;83;21260;-70
2022/03/17 00:35:48;;;;;;;31.33;10.75;;;;;;;-3.46;62.39;101443.33;1712333;83;21522;-68
2022/03/17 00:38:17;;;;;;;24.07;10.28;;;;;;;-3.42;62.38;101443.31;1711210;82;21615;-68
2022/03/17 00:40:46;;;;;;;27.30;11.90;;;;;;;-3.36;62.25;101443.94;1687069;83;21119;-69
2022/03/17 00:43:14;;;;;;;31.02;12.18;;;;;;;-3.31;62.02;101444.77;1710781;82;21115;-68
2022/03/17 00:45:44;;;;;;;22.85;10.80;;;;;;;-3.31;61.85;101446.93;1708488;83;21067;-69
2022/03/17 00:48:11;;;;;;;33.58;12.40;;;;;;;-3.31;61.71;101440.19;1681347;84;21593;-69
2022/03/17 00:50:39;;;;;;;31.82;11.68;;;;;;;-3.33;61.57;101443.60;1709216;83;21036;-70
2022/03/17 00:53:06;;;;;;;36.95;13.90;;;;;;;-3.33;61.60;101447.64;1677286;85;21137;-71
2022/03/17 00:55:33;;;;;;;43.90;14.05;;;;;;;-3.31;61.57;101446.11;1707667;83;21631;-70
2022/03/17 00:58:01;;;;;;;35.58;14.98;;;;;;;-3.32;61.51;101437.67;1707273;83;21767;-68
2022/03/17 01:00:31;;;;;;;38.30;13.50;;;;;;;-3.32;61.49;101441.22;1683639;83;20965;-72
2022/03/17 01:02:58;;;;;;;46.77;15.30;;;;;;;-3.31;61.61;101439.38;1670273;84;21074;-72
2022/03/17 01:05:26;;;;;;;37.63;13.00;;;;;;;-3.29;61.59;101442.70;1710625;83;20953;-68
2022/03/17 01:07:55;;;;;;;33.05;14.05;;;;;;;-3.28;61.66;101439.01;1710930;83;20934;-70
2022/03/17 01:10:22;;;;;;;37.50;15.48;;;;;;;-3.25;61.67;101442.69;1710200;83;21671;-68
2022/03/17 01:12:51;;;;;;;34.23;14.28;;;;;;;-3.22;61.68;101442.32;1681520;84;21541;-69
2022/03/17 01:15:19;;;;;;;38.00;15.30;;;;;;;-3.19;61.73;101437.91;1714423;83;21099;-69
2022/03/17 01:17:46;;;;;;;38.40;16.85;;;;;;;-3.17;61.63;101440.42;1707797;83;21005;-68
2022/03/17 01:20:14;;;;;;;35.17;15.15;;;;;;;-3.16;61.49;101437.22;1710630;83;21053;-68
2022/03/17 01:22:42;;;;;;;38.90;15.68;;;;;;;-3.16;61.48;101439.92;1711013;83;21222;-68
2022/03/17 01:25:09;;;;;;;41.18;16.60;;;;;;;-3.14;61.30;101433.34;1709769;83;20989;-70
2022/03/17 01:27:36;;;;;;;41.70;14.83;;;;;;;-3.14;61.28;101437.89;1710139;83;21252;-69
2022/03/17 01:30:05;;;;;;;37.42;14.70;;;;;;;-3.16;61.32;101439.92;1680123;84;21057;-68
2022/03/17 01:32:35;;;;;;;40.60;16.20;;;;;;;-3.18;61.44;101439.61;1706560;83;21212;-67
2022/03/17 01:35:02;;;;;;;36.45;15.25;;;;;;;-3.16;61.53;101443.47;1710221;83;21273;-68
2022/03/17 01:37:29;;;;;;;33.35;14.73;;;;;;;-3.14;61.56;101443.28;1707303;83;20934;-69
2022/03/17 01:39:57;;;;;;;32.23;13.80;;;;;;;-3.14;61.51;101442.78;1706788;83;20962;-70
2022/03/17 01:42:23;;;;;;;34.43;13.15;;;;;;;-3.14;61.46;101440.09;1710153;82;21118;-68
2022/03/17 01:44:55;;;;;;;31.70;13.60;;;;;;;-3.18;61.35;101449.05;1711021;83;21012;-69
2022/03/17 01:47:29;;;;;;;39.67;14.45;;;;;;;-3.20;61.42;101447.53;1708561;83;21556;-70
2022/03/17 01:50:07;;;;;;;38.63;13.95;;;;;;;-3.22;61.53;101451.77;1708210;83;21041;-70
2022/03/17 01:52:34;;;;;;;32.65;13.60;;;;;;;-3.23;61.67;101449.25;1685365;82;21039;-69
2022/03/17 01:55:01;;;;;;;31.37;13.18;;;;;;;-3.19;61.71;101454.09;1713496;82;21115;-70
2022/03/17 01:57:28;;;;;;;30.57;12.05;;;;;;;-3.23;61.90;101455.48;1688605;83;21060;-69
2022/03/17 01:59:54;;;;;;;27.48;12.20;;;;;;;-3.25;62.01;101449.93;1736305;82;21047;-69
2022/03/17 02:02:24;;;;;;;28.07;12.18;;;;;;;-3.26;62.07;101450.95;1715097;82;21005;-69
2022/03/17 02:04:53;;;;;;;32.98;13.03;;;;;;;-3.27;62.02;101454.16;1738163;82;21112;-70
2022/03/17 02:07:21;;;;;;;29.37;11.85;;;;;;;-3.29;61.95;101450.80;1739135;81;21008;-69
2022/03/17 02:09:50;;;;;;;30.45;11.90;;;;;;;-3.32;61.92;101461.45;1737738;81;21006;-69
2022/03/17 02:15:06;;;;;;;33.00;12.35;;;;;;;-3.36;61.79;101459.30;1694304;83;20944;-70
2022/03/17 02:17:43;;;;;;;22.02;10.70;;;;;;;-3.41;61.81;101461.16;1701398;84;20977;-69
2022/03/17 02:20:15;;;;;;;25.02;11.12;;;;;;;-3.44;61.77;101469.61;1691692;83;21111;-71
2022/03/17 02:22:47;;;;;;;23.12;10.53;;;;;;;-3.47;61.74;101469.97;1685323;83;21000;-69
2022/03/17 02:25:35;;;;;;;23.67;10.55;;;;;;;-3.48;61.54;101475.05;1680949;83;21819;-70
2022/03/17 02:28:04;;;;;;;23.15;9.10;;;;;;;-3.51;61.55;101470.83;1697125;83;21125;-69
2022/03/17 02:30:36;;;;;;;17.92;8.98;;;;;;;-3.51;61.38;101480.27;1700785;83;21081;-69
2022/03/17 02:33:07;;;;;;;22.82;9.73;;;;;;;-3.53;61.27;101480.13;1738227;82;20941;-69
2022/03/17 02:35:37;;;;;;;20.43;8.30;;;;;;;-3.55;61.13;101481.66;1690586;83;20961;-69
2022/03/17 02:38:06;;;;;;;22.35;8.75;;;;;;;-3.57;60.93;101489.08;1696095;83;21174;-69
2022/03/17 02:40:37;;;;;;;20.48;8.20;;;;;;;-3.60;60.83;101481.34;1689171;83;21560;-69
2022/03/17 02:43:05;;;;;;;23.60;9.58;;;;;;;-3.62;60.68;101491.46;1688041;83;21001;-69
2022/03/17 02:45:32;;;;;;;16.65;7.97;;;;;;;-3.65;60.55;101489.94;1681365;83;21020;-69
2022/03/17 02:47:59;;;;;;;21.70;8.70;;;;;;;-3.65;60.47;101488.59;1698546;83;21235;-71
2022/03/17 02:50:27;;;;;;;13.00;7.05;;;;;;;-3.63;60.51;101489.80;1686793;82;21085;-70
2022/03/17 02:52:54;;;;;;;13.62;6.95;;;;;;;-3.64;60.30;101490.79;1677411;83;21143;-71
2022/03/17 02:55:23;;;;;;;17.87;7.58;;;;;;;-3.64;60.15;101494.33;1684928;84;21059;-69
2022/03/17 02:57:50;;;;;;;16.85;7.47;;;;;;;-3.63;60.07;101496.00;1692666;83;20965;-71
2022/03/17 03:00:18;;;;;;;16.07;7.03;;;;;;;-3.64;59.90;101494.33;1689192;83;20966;-71
2022/03/17 03:02:45;;;;;;;12.70;6.75;;;;;;;-3.61;59.92;101494.48;1697129;83;21615;-69
2022/03/17 03:05:14;;;;;;;12.25;6.33;;;;;;;-3.64;59.91;101497.03;1701899;83;21233;-71
2022/03/17 03:07:43;;;;;;;10.60;5.30;;;;;;;-3.63;59.91;101498.70;1741080;81;21067;-71
2022/03/17 03:10:09;;;;;;;11.57;5.83;;;;;;;-3.62;59.94;101499.55;1704453;82;20977;-69
2022/03/17 03:12:38;;;;;;;14.80;5.83;;;;;;;-3.62;59.79;101502.23;1719307;82;21040;-71
2022/03/17 03:15:07;;;;;;;15.30;6.53;;;;;;;-3.65;59.66;101507.98;1714021;82;21216;-68
2022/03/17 03:17:35;;;;;;;14.40;6.58;;;;;;;-3.69;59.56;101511.04;1739144;81;21050;-70
2022/03/17 03:20:02;;;;;;;11.90;5.83;;;;;;;-3.74;59.59;101512.08;1737093;81;21071;-69
2022/03/17 03:22:36;;;;;;;14.90;5.70;;;;;;;-3.83;59.78;101505.88;1671197;83;20998;-70
2022/03/17 03:25:01;;;;;;;14.18;6.28;;;;;;;-3.89;59.75;101509.28;1691375;83;21053;-71
2022/03/17 03:27:29;;;;;;;17.10;6.25;;;;;;;-3.96;59.89;101513.67;1690996;83;21241;-70
2022/03/17 03:29:58;;;;;;;18.67;6.67;;;;;;;-4.01;59.85;101517.40;1691564;83;21056;-69
2022/03/17 03:32:27;;;;;;;18.48;6.60;;;;;;;-4.05;59.89;101516.91;1702210;83;20970;-69
2022/03/17 03:34:57;;;;;;;13.35;6.97;;;;;;;-4.08;59.90;101516.75;1689808;83;21018;-70
2022/03/17 03:37:25;;;;;;;16.70;7.83;;;;;;;-4.09;59.98;101528.52;1680458;83;21100;-71
2022/03/17 03:39:56;;;;;;;17.70;8.65;;;;;;;-4.12;60.05;101528.02;1698260;83;21584;-69
2022/03/17 03:42:25;;;;;;;31.85;12.25;;;;;;;-4.19;60.14;101529.22;1698486;83;21093;-70
2022/03/17 03:44:54;;;;;;;29.18;10.53;;;;;;;-4.26;60.30;101531.77;1692974;83;20976;-71
2022/03/17 03:47:21;;;;;;;32.23;11.03;;;;;;;-4.32;60.43;101529.77;1688848;83;20978;-69
2022/03/17 03:49:51;;;;;;;30.95;11.18;;;;;;;-4.37;60.83;101537.52;1697373;83;21480;-71
2022/03/17 03:52:18;;;;;;;24.47;9.03;;;;;;;-4.41;60.95;101538.36;1730501;81;21613;-68
2022/03/17 03:54:47;;;;;;;25.75;9.00;;;;;;;-4.43;60.88;101537.67;1680545;83;21096;-70
2022/03/17 03:57:14;;;;;;;24.77;9.73;;;;;;;-4.47;60.85;101535.83;1689143;83;21609;-70
2022/03/17 03:59:43;;;;;;;28.40;10.30;;;;;;;-4.50;60.73;101540.21;1691132;83;21439;-70
2022/03/17 04:02:10;;;;;;;24.32;10.08;;;;;;;-4.56;60.77;101543.09;1684587;83;20975;-70
2022/03/17 04:04:42;;;;;;;25.10;9.78;;;;;;;-4.61;60.95;101547.30;1698782;83;21601;-69
2022/03/17 04:07:10;;;;;;;26.48;9.18;;;;;;;-4.61;61.02;101544.60;1699263;83;21427;-70
2022/03/17 04:09:42;;;;;;;29.67;10.13;;;;;;;-4.58;60.93;101548.30;1702772;83;20981;-71
2022/03/17 04:12:12;;;;;;;31.48;11.57;;;;;;;-4.55;60.81;101547.95;1693156;83;21101;-72
2022/03/17 04:14:39;;;;;;;28.42;12.00;;;;;;;-4.52;60.85;101548.98;1701087;83;21036;-71
2022/03/17 04:17:06;;;;;;;29.45;11.60;;;;;;;-4.51;60.45;101553.34;1674769;83;21234;-70
2022/03/17 04:19:34;;;;;;;35.75;12.00;;;;;;;-4.48;60.42;101554.34;1687787;83;21062;-70
2022/03/17 04:22:04;;;;;;;34.10;11.22;;;;;;;-4.44;60.28;101561.58;1697404;83;21056;-68
2022/03/17 04:24:33;;;;;;;32.45;10.38;;;;;;;-4.41;60.24;101555.85;1700850;83;21040;-69
2022/03/17 04:27:00;;;;;;;27.55;10.75;;;;;;;-4.40;60.17;101558.38;1683845;83;20989;-70
2022/03/17 04:29:28;;;;;;;31.85;9.33;;;;;;;-4.39;60.29;101563.27;1734226;81;21151;-69
2022/03/17 04:31:56;;;;;;;29.37;10.15;;;;;;;-4.37;60.04;101560.39;1739885;81;21716;-70
2022/03/17 04:34:26;;;;;;;29.75;9.40;;;;;;;-4.36;59.99;101568.30;1727716;82;20972;-71
2022/03/17 04:36:53;;;;;;;23.45;8.50;;;;;;;-4.40;59.62;101568.29;1711023;81;21068;-70
2022/03/17 04:39:20;;;;;;;17.07;8.08;;;;;;;-4.39;59.87;101579.41;1700575;82;21376;-69
2022/03/17 04:41:48;;;;;;;23.92;9.88;;;;;;;-4.32;59.63;101575.53;1741477;82;21892;-69
2022/03/17 04:44:15;;;;;;;34.30;10.45;;;;;;;-4.30;59.23;101573.52;1711547;82;21005;-71
2022/03/17 04:46:43;;;;;;;26.97;10.70;;;;;;;-4.29;59.32;101583.27;1738284;82;20957;-68
2022/03/17 04:49:11;;;;;;;27.93;9.68;;;;;;;-4.29;59.42;101583.27;1728384;82;21023;-68
2022/03/17 04:51:39;;;;;;;21.10;9.33;;;;;;;-4.29;59.66;101585.47;1734817;82;21394;-69
2022/03/17 04:54:06;;;;;;;22.13;9.15;;;;;;;-4.28;59.51;101584.94;1705023;82;21763;-66
2022/03/17 04:56:33;;;;;;;15.63;7.55;;;;;;;-4.24;59.44;101590.83;1703389;83;21051;-71
2022/03/17 04:59:00;;;;;;;19.52;8.00;;;;;;;-4.26;58.50;101595.03;1692287;83;20964;-68
2022/03/17 05:01:27;;;;;;;18.42;8.15;;;;;;;-4.28;58.51;101589.83;1688819;83;21229;-68
2022/03/17 05:03:54;;;;;;;12.85;7.25;;;;;;;-4.23;58.73;101599.26;1738422;81;22483;-71
2022/03/17 05:06:27;;;;;;;12.47;6.25;;;;;;;-4.17;58.97;101596.73;1676645;83;21088;-68
2022/03/17 05:08:54;;;;;;;12.15;6.55;;;;;;;-4.08;58.79;101599.41;1694336;83;21057;-70
2022/03/17 05:11:26;;;;;;;9.90;5.85;;;;;;;-3.99;58.56;101600.23;1705364;83;21561;-69
2022/03/17 05:13:54;;;;;;;13.60;6.20;;;;;;;-3.84;58.21;101611.14;1700268;83;21100;-69
2022/03/17 05:16:22;;;;;;;10.55;5.58;;;;;;;-3.68;57.76;101609.73;1694320;83;20950;-70
2022/03/17 05:18:51;;;;;;;12.98;5.92;;;;;;;-3.56;57.31;101609.34;1694269;82;21904;-69
2022/03/17 05:21:19;;;;;;;12.50;5.28;;;;;;;-3.47;56.96;101612.86;1689410;83;21056;-69
2022/03/17 05:23:53;;;;;;;14.50;5.92;;;;;;;-3.39;56.84;101618.72;1695607;83;21166;-70
2022/03/17 05:26:24;;;;;;;13.45;6.75;;;;;;;-3.28;56.67;101626.44;1717659;82;20973;-69
2022/03/17 05:28:52;;;;;;;15.48;7.65;;;;;;;-3.19;56.48;101622.67;1719870;82;20944;-69
2022/03/17 05:31:20;;;;;;;17.52;9.50;;;;;;;-3.07;56.39;101629.04;1731442;82;21656;-67
2022/03/17 05:33:47;;;;;;;16.65;8.90;;;;;;;-2.97;55.97;101626.93;1724852;82;20956;-68
2022/03/17 05:36:15;;;;;;;19.87;11.70;;;;;;;-2.87;55.64;101634.82;1685848;83;21010;-68
2022/03/17 05:38:44;;;;;;;17.98;8.63;;;;;;;-2.78;55.18;101636.94;1689882;83;21077;-69
2022/03/17 05:41:13;;;;;;;22.82;9.88;;;;;;;-2.71;55.00;101646.00;1741233;81;21126;-68
2022/03/17 05:43:40;;;;;;;23.07;9.63;;;;;;;-2.64;54.75;101645.28;1699235;82;21129;-67
2022/03/17 05:46:08;;;;;;;20.52;10.38;;;;;;;-2.58;54.58;101644.05;1739960;81;20972;-69
2022/03/17 05:48:41;;;;;;;18.27;10.23;;;;;;;-2.49;54.45;101652.94;1739444;81;20992;-69
2022/03/17 05:51:08;;;;;;;23.87;9.85;;;;;;;-2.39;54.36;101654.56;1736997;81;20980;-69
2022/03/17 05:53:35;;;;;;;19.32;10.08;;;;;;;-2.29;54.26;101651.61;1719088;82;21028;-68
2022/03/17 05:56:02;;;;;;;23.60;11.90;;;;;;;-2.20;54.04;101659.46;1722265;82;21654;-69
2022/03/17 05:58:31;;;;;;;22.02;10.48;;;;;;;-2.09;53.86;101655.50;1727860;82;21065;-69
2022/03/17 06:01:00;;;;;;;23.38;9.80;;;;;;;-1.98;53.38;101656.89;1721843;82;20984;-68
2022/03/17 06:03:27;;;;;;;22.70;9.18;;;;;;;-1.88;53.01;101663.41;1693784;83;21009;-70
2022/03/17 06:05:54;;;;;;;17.55;9.18;;;;;;;-1.79;52.57;101659.27;1717545;82;20974;-71
2022/03/17 06:08:21;;;;;;;22.67;9.20;;;;;;;-1.67;52.11;101661.02;1687584;83;21864;-71
2022/03/17 06:10:50;;;;;;;17.70;8.75;;;;;;;-1.60;51.84;101665.98;1709113;82;21001;-71
2022/03/17 06:13:18;;;;;;;19.87;9.05;;;;;;;-1.53;50.99;101657.97;1739494;81;21159;-71
2022/03/17 06:15:50;;;;;;;32.20;9.13;;;;;;;-1.48;50.88;101667.71;1741323;81;21007;-69
2022/03/17 06:18:17;;;;;;;20.30;9.03;;;;;;;-1.43;50.50;101663.94;1739435;82;21512;-68
2022/03/17 06:20:44;;;;;;;19.23;9.20;;;;;;;-1.39;50.20;101665.76;1738330;81;21069;-72
2022/03/17 06:23:12;;;;;;;17.30;8.05;;;;;;;-1.35;49.92;101667.08;1739065;82;20924;-71
2022/03/17 06:25:40;;;;;;;15.40;8.80;;;;;;;-1.32;49.54;101668.55;1737657;81;20961;-72
2022/03/17 06:28:08;;;;;;;18.73;8.58;;;;;;;-1.30;49.05;101664.65;1739739;81;20929;-68
2022/03/17 06:30:36;;;;;;;15.15;7.12;;;;;;;-1.27;49.13;101666.12;1742747;81;21205;-71
2022/03/17 06:33:04;;;;;;;16.10;8.50;;;;;;;-1.19;49.24;101669.23;1740230;81;21036;-72
2022/03/17 06:35:32;;;;;;;16.97;8.08;;;;;;;-1.11;49.21;101670.51;1701070;83;21660;-69
2022/03/17 06:38:05;;;;;;;13.70;7.08;;;;;;;-1.04;48.70;101671.94;1694883;83;20989;-68
2022/03/17 06:40:32;;;;;;;16.50;8.13;;;;;;;-1.00;48.50;101675.93;1674853;84;20948;-71
2022/03/17 06:43:01;;;;;;;18.42;7.92;;;;;;;-0.94;48.25;101682.47;1683971;83;21245;-71
2022/03/17 06:45:50;;;;;;;15.08;7.70;;;;;;;-0.94;47.63;101677.05;1690553;83;21179;-67
2022/03/17 06:48:16;;;;;;;16.40;8.55;;;;;;;-0.94;47.53;101668.93;1703504;83;21029;-69
2022/03/17 06:50:48;;;;;;;15.70;7.42;;;;;;;-0.90;47.47;101674.27;1686875;83;20985;-72
2022/03/17 06:53:15;;;;;;;17.00;8.85;;;;;;;-0.84;47.37;101686.22;1707458;83;21092;-72
2022/03/17 06:55:42;;;;;;;22.42;8.90;;;;;;;-0.78;47.08;101684.09;1687910;83;21602;-73
2022/03/17 06:58:10;;;;;;;18.45;9.60;;;;;;;-0.73;47.03;101674.88;1683385;83;21139;-74
2022/03/17 07:00:39;;;;;;;20.08;9.18;;;;;;;-0.68;46.90;101671.63;1685575;83;21068;-70
2022/03/17 07:03:07;;;;;;;20.20;8.48;;;;;;;-0.63;46.85;101673.21;1703698;83;21013;-73
2022/03/17 07:05:57;;;;;;;17.87;8.58;;;;;;;-0.56;46.66;101676.84;1689081;83;20965;-72
2022/03/17 07:08:28;;;;;;;17.23;8.33;;;;;;;-0.51;46.20;101671.68;1722945;81;20965;-70
2022/03/17 07:10:56;;;;;;;14.70;7.47;;;;;;;-0.47;46.02;101675.35;1738373;82;21232;-73
2022/03/17 07:13:27;;;;;;;14.00;6.15;;;;;;;-0.39;45.77;101675.22;1724573;82;21119;-70
2022/03/17 07:15:58;;;;;;;18.07;7.37;;;;;;;-0.28;45.24;101672.52;1723015;82;21035;-74
2022/03/17 07:18:29;;;;;;;11.28;5.70;;;;;;;-0.21;44.50;101673.94;1688662;83;21084;-69
2022/03/17 07:20:59;;;;;;;12.60;6.20;;;;;;;-0.26;44.66;101675.34;1688322;83;21141;-73
2022/03/17 07:23:29;;;;;;;9.85;4.85;;;;;;;-0.19;44.34;101678.14;1671024;84;21290;-71
2022/03/17 07:25:57;;;;;;;11.78;5.10;;;;;;;-0.11;43.42;101671.73;1701250;83;21088;-71
2022/03/17 07:28:25;;;;;;;13.22;5.50;;;;;;;-0.12;42.41;101683.63;1705029;84;21426;-71
2022/03/17 07:30:52;;;;;;;15.30;5.67;;;;;;;-0.12;42.86;101680.91;1696485;83;21430;-70
2022/03/17 07:33:21;;;;;;;8.68;4.62;;;;;;;-0.05;42.77;101679.08;1692865;83;20960;-73
2022/03/17 07:35:49;;;;;;;10.55;4.47;;;;;;;-0.01;42.00;101672.24;1677689;84;21199;-68
2022/03/17 07:38:17;;;;;;;10.13;4.58;;;;;;;0.00;41.63;101674.45;1701797;83;21057;-69
2022/03/17 07:40:45;;;;;;;10.63;4.72;;;;;;;0.02;41.15;101673.70;1692521;83;21521;-68
2022/03/17 07:43:12;;;;;;;9.00;4.33;;;;;;;0.05;41.30;101678.73;1692648;83;21060;-68
2022/03/17 07:45:54;;;;;;;10.78;4.62;;;;;;;0.12;40.99;101678.78;1706075;83;20931;-72
2022/03/17 07:48:41;;;;;;;8.10;4.08;;;;;;;0.16;40.91;101676.02;1686751;83;21414;-70
2022/03/17 07:51:10;;;;;;;9.00;4.33;;;;;;;0.15;39.98;101682.48;1698002;83;20966;-71
2022/03/17 07:53:40;;;;;;;9.35;4.37;;;;;;;0.13;40.00;101676.41;1715299;83;21040;-71
2022/03/17 07:56:14;;;;;;;10.30;5.75;;;;;;;0.14;40.00;101684.86;1681435;83;21044;-70
2022/03/17 07:58:41;;;;;;;9.40;4.78;;;;;;;0.20;40.11;101685.44;1681320;83;21090;-71
2022/03/17 08:01:07;;;;;;;8.25;4.70;;;;;;;0.24;39.81;101686.70;1723938;82;21126;-72
2022/03/17 08:03:36;;;;;;;9.83;4.58;;;;;;;0.27;39.37;101681.94;1695603;83;21497;-68
2022/03/17 08:06:04;;;;;;;4.65;3.22;;;;;;;0.23;38.79;101681.48;1717510;82;21027;-71
2022/03/17 08:08:34;;;;;;;10.32;3.90;;;;;;;0.16;38.85;101680.08;1687997;83;21033;-70
2022/03/17 08:11:02;;;;;;;6.22;4.10;;;;;;;0.16;39.18;101686.02;1675670;83;20990;-71
2022/03/17 08:13:30;;;;;;;8.23;3.92;;;;;;;0.27;39.52;101689.56;1687238;83;21097;-72
2022/03/17 08:15:57;;;;;;;8.25;3.47;;;;;;;0.41;39.32;101682.33;1680577;83;21395;-69
2022/03/17 08:18:30;;;;;;;10.88;3.95;;;;;;;0.48;38.48;101679.14;1700010;83;21016;-71
2022/03/17 08:20:58;;;;;;;13.62;4.67;;;;;;;0.40;38.19;101682.02;1681914;83;21462;-72
2022/03/17 08:23:25;;;;;;;9.45;4.33;;;;;;;0.34;38.67;101679.57;1684769;83;21045;-70
2022/03/17 08:25:53;;;;;;;6.75;3.85;;;;;;;0.30;38.05;101687.80;1693368;83;21462;-70
2022/03/17 08:28:21;;;;;;;11.18;4.30;;;;;;;0.26;38.35;101676.20;1681042;83;21449;-71
2022/03/17 08:30:48;;;;;;;9.98;4.10;;;;;;;0.33;38.63;101694.69;1683154;83;21423;-71
2022/03/17 08:33:15;;;;;;;14.55;4.20;;;;;;;0.27;38.00;101684.64;1694767;83;21016;-71
2022/03/17 08:35:45;;;;;;;11.35;4.50;;;;;;;0.28;38.42;101678.17;1694740;83;21000;-69
2022/03/17 08:38:13;;;;;;;6.92;3.65;;;;;;;0.29;37.95;101677.16;1710744;83;21640;-71
2022/03/17 08:40:42;;;;;;;9.00;3.98;;;;;;;0.30;37.82;101676.95;1701147;83;20997;-72
2022/03/17 08:43:12;;;;;;;8.50;3.80;;;;;;;0.34;38.21;101677.40;1701477;84;21084;-70
2022/03/17 08:51:16;;;;;;;8.40;4.33;;;;;;;0.63;38.52;101669.22;1670020;84;21076;-72
2022/03/17 08:53:43;;;;;;;6.40;3.50;;;;;;;0.86;37.63;101666.19;1683190;84;21016;-71
2022/03/17 08:56:11;;;;;;;6.60;4.08;;;;;;;0.91;37.37;101670.50;1671043;84;21071;-71
2022/03/17 08:58:38;;;;;;;13.40;4.80;;;;;;;0.90;37.69;101670.19;1665577;84;21012;-71
2022/03/17 09:01:13;;;;;;;6.97;4.12;;;;;;;0.97;37.39;101675.10;1666371;84;20997;-69
2022/03/17 09:03:41;;;;;;;9.75;4.22;;;;;;;1.05;37.65;101671.91;1699070;82;21813;-71
2022/03/17 09:06:13;;;;;;;8.30;4.53;;;;;;;1.20;37.62;101671.23;1704879;83;21611;-70
2022/03/17 09:08:41;;;;;;;6.85;4.10;;;;;;;1.39;37.62;101670.13;1710399;83;20981;-71
2022/03/17 09:11:13;;;;;;;7.65;5.08;;;;;;;1.51;37.01;101675.80;1708502;83;20833;-71
2022/03/17 09:13:39;;;;;;;10.58;4.95;;;;;;;1.41;36.69;101678.92;1707637;83;21048;-70
2022/03/17 09:16:07;;;;;;;11.03;4.70;;;;;;;1.38;37.15;101686.64;1711069;83;21894;-71
2022/03/17 09:18:36;;;;;;;9.95;4.90;;;;;;;1.49;37.54;101681.11;1707671;83;20957;-71
2022/03/17 09:21:03;;;;;;;11.00;5.45;;;;;;;1.61;36.94;101678.11;1645399;85;21298;-70
2022/03/17 09:23:33;;;;;;;9.63;5.70;;;;;;;1.64;37.11;101686.39;1667499;85;21110;-70
2022/03/17 09:26:04;;;;;;;8.15;4.67;;;;;;;1.70;37.07;101680.96;1709943;83;21525;-69
2022/03/17 09:28:33;;;;;;;14.50;4.83;;;;;;;1.63;36.28;101678.75;1707602;83;21531;-70
2022/03/17 09:31:00;;;;;;;8.95;4.72;;;;;;;1.44;35.96;101674.94;1708483;83;21524;-70
2022/03/17 09:33:28;;;;;;;8.75;4.95;;;;;;;1.29;36.48;101680.55;1708568;83;21293;-69
2022/03/17 09:35:57;;;;;;;11.90;4.95;;;;;;;1.29;36.78;101687.34;1712771;83;20996;-70
2022/03/17 09:38:26;;;;;;;10.23;5.15;;;;;;;1.33;36.72;101679.11;1706641;83;21170;-71
2022/03/17 09:40:55;;;;;;;8.25;5.20;;;;;;;1.43;37.09;101682.24;1676416;85;21235;-70
2022/03/17 09:43:31;;;;;;;8.23;4.27;;;;;;;1.62;37.51;101683.84;1646462;84;20921;-70
2022/03/17 09:45:58;;;;;;;8.90;4.53;;;;;;;1.85;37.34;101679.91;1663178;84;21235;-72
2022/03/17 09:48:26;;;;;;;8.03;4.50;;;;;;;1.99;36.54;101678.05;1709639;83;21055;-71
2022/03/17 09:50:57;;;;;;;8.55;4.35;;;;;;;2.04;36.49;101677.41;1671336;84;20933;-69
2022/03/17 09:53:29;;;;;;;13.32;4.87;;;;;;;2.18;36.51;101683.14;1660585;85;21131;-68
2022/03/17 09:55:57;;;;;;;9.48;4.83;;;;;;;2.38;36.80;101674.65;1709977;83;20940;-69
2022/03/17 09:58:26;;;;;;;11.33;5.60;;;;;;;2.61;36.60;101675.53;1709774;83;20956;-68
2022/03/17 10:00:53;;;;;;;13.55;5.40;;;;;;;2.82;36.27;101679.03;1698638;83;21015;-70
2022/03/17 10:03:25;;;;;;;12.13;5.47;;;;;;;3.00;35.85;101676.16;1707409;83;20924;-70
2022/03/17 10:05:57;;;;;;;10.68;4.60;;;;;;;3.16;35.73;101687.91;1710005;83;21124;-71
2022/03/17 10:08:23;;;;;;;8.83;4.72;;;;;;;3.27;34.55;101687.77;1703518;83;20983;-69
2022/03/17 10:10:52;;;;;;;9.53;5.72;;;;;;;3.09;34.05;101684.37;1665830;84;20990;-68
2022/03/17 10:13:23;;;;;;;10.78;4.28;;;;;;;3.07;34.73;101681.02;1705945;83;20952;-71
2022/03/17 10:16:18;;;;;;;8.93;4.67;;;;;;;3.20;34.71;101682.02;1707409;83;20913;-71
2022/03/17 10:18:46;;;;;;;7.70;4.83;;;;;;;3.36;34.87;101676.61;1647284;85;21235;-71
2022/03/17 10:21:27;;;;;;;7.67;4.15;;;;;;;3.56;34.70;101674.27;1667503;84;21085;-68
2022/03/17 10:24:08;;;;;;;8.68;4.78;;;;;;;3.66;34.37;101671.90;1661272;85;21084;-71
2022/03/17 10:26:46;;;;;;;10.82;4.85;;;;;;;3.67;34.05;101679.56;1653150;84;20978;-69
2022/03/17 10:29:19;;;;;;;8.78;5.10;;;;;;;3.65;34.02;101677.87;1665899;85;21063;-71
2022/03/17 10:32:14;;;;;;;8.73;4.30;;;;;;;3.69;33.94;101677.42;1684592;84;21793;-70
2022/03/17 10:34:55;;;;;;;;;;;;;;;3.74;33.97;101671.63;1711597;83;21071;-69
2022/03/17 10:37:25;;;;;;;5.10;3.37;;;;;;;3.82;34.04;101666.96;1699733;83;20160;-71
2022/03/17 10:39:56;;;;;;;8.10;4.78;;;;;;;3.82;33.56;101675.96;1688317;83;21004;-70
2022/03/17 10:42:29;;;;;;;9.38;4.80;;;;;;;3.56;33.71;101675.11;1669093;85;21075;-71
2022/03/17 10:45:05;;;;;;;10.65;4.70;;;;;;;3.35;33.73;101678.48;1634871;85;21783;-71
2022/03/17 10:47:37;;;;;;;10.43;4.95;;;;;;;3.26;33.84;101679.78;1661040;84;21004;-71
2022/03/17 10:50:18;;;;;;;6.58;4.00;;;;;;;3.20;34.00;101676.57;1664277;85;20987;-71
2022/03/17 10:53:00;;;;;;;9.23;3.60;;;;;;;3.16;34.08;101675.65;1675431;84;20961;-71
2022/03/17 10:55:32;;;;;;;8.48;4.72;;;;;;;3.14;34.19;101670.94;1651045;84;21099;-68
2022/03/17 10:58:18;;;;;;;7.83;4.50;;;;;;;3.13;34.20;101666.55;1660577;85;21277;-70
2022/03/17 11:00:49;;;;;;;14.75;5.17;;;;;;;3.15;34.08;101670.42;1653832;85;21014;-70
2022/03/17 11:03:20;;;;;;;8.30;4.67;;;;;;;3.26;34.30;101672.97;1649049;85;21017;-67
2022/03/17 11:05:53;;;;;;;11.83;4.53;;;;;;;3.33;34.20;101668.84;1672456;85;21024;-72
2022/03/17 11:08:31;;;;;;;7.92;4.28;;;;;;;3.51;34.50;101670.84;1656824;85;21010;-70
2022/03/17 11:10:58;;;;;;;11.83;4.50;;;;;;;3.77;34.47;101667.64;1661764;85;21158;-67
2022/03/17 11:13:26;;;;;;;10.90;4.70;;;;;;;3.96;34.15;101669.06;1643474;85;21048;-72
2022/03/17 11:16:09;;;;;;;12.43;5.25;;;;;;;3.86;33.58;101667.66;1660289;85;21562;-70
2022/03/17 11:18:39;;;;;;;9.88;5.30;;;;;;;3.77;33.95;101667.64;1654598;84;21027;-71
2022/03/17 11:21:19;;;;;;;9.73;4.62;;;;;;;3.55;33.69;101667.16;1664704;85;21021;-71
2022/03/17 11:24:01;;;;;;;16.37;4.45;;;;;;;3.22;34.19;101665.78;1665479;85;21270;-69
2022/03/17 11:26:38;;;;;;;11.40;4.40;;;;;;;2.94;34.05;101675.11;1665866;84;21126;-70
2022/03/17 11:29:15;;;;;;;22.32;11.48;;;;;;;2.43;33.80;101670.25;1694633;83;21003;-67
2022/03/17 11:32:02;;;;;;;10.78;4.80;;;;;;;2.15;34.47;101663.16;1669836;85;21106;-71
2022/03/17 11:34:48;;;;;;;9.38;4.20;;;;;;;2.00;34.68;101653.86;1658034;85;21214;-72
2022/03/17 11:37:21;;;;;;;10.50;4.65;;;;;;;2.11;35.56;101669.24;1669816;84;21142;-70
2022/03/17 11:39:57;;;;;;;7.83;3.30;;;;;;;2.42;35.37;101651.42;1662512;85;21067;-72